Peotone Weather
Peotone-Weather Station Historical Data
Daily Summary for June 02, 2020 Units:  Metric    English   Both
Daily Weekly Monthly Yearly Custom
  High: Low: Average:
Temperature: 34 °C 17.1 °C 25.8 °C
Dew Point: 20 °C 10.4 °C 16.3 °C
Humidity: 77% 37.1% 57%
Wind Speed: 27.2km/h 5.6km/h 17.1km/h
Wind Gust: 49.9km/h - -
Wind- - SW
Pressure: 1016.5 hPa 1008.7 hPa -
Precipitation: 0 mm    
Historical Graphs
 
 
Tabular Data for June 02, 2020
Time Temperature Dew Point Pressure Wind Wind Speed Wind Gust Humidity Rainfall Rate (Hourly) solar
00:04 18.7 °C 11 °C 1016.5 hPa South 8.7 km/h 16.6 km/h 60.7% 0 mm 0 W/m2
00:09 18.7 °C 11 °C 1016.5 hPa South 7.9 km/h 16.6 km/h 61% 0 mm 0 W/m2
00:14 18.6 °C 10.9 °C 1016.1 hPa South 9.8 km/h 16.6 km/h 61% 0 mm 0 W/m2
00:19 18.6 °C 10.9 °C 1016.1 hPa South 9.8 km/h 18.5 km/h 61.2% 0 mm 0 W/m2
00:24 18.6 °C 10.9 °C 1016.1 hPa South 10.9 km/h 18.5 km/h 61.2% 0 mm 0 W/m2
00:29 18.6 °C 10.9 °C 1016.1 hPa SSW 6.9 km/h 16.6 km/h 61% 0 mm 0 W/m2
00:34 18.6 °C 10.9 °C 1016.1 hPa SSW 7.9 km/h 13 km/h 61% 0 mm 0 W/m2
00:39 18.6 °C 10.9 °C 1016.1 hPa SSW 9.2 km/h 16.6 km/h 61% 0 mm 0 W/m2
00:44 18.5 °C 10.9 °C 1016.1 hPa South 10.3 km/h 16.6 km/h 61.2% 0 mm 0 W/m2
00:49 18.3 °C 10.9 °C 1016.1 hPa SSW 11.1 km/h 18.5 km/h 62% 0 mm 0 W/m2
00:54 18.4 °C 10.8 °C 1016.1 hPa SSW 8.5 km/h 18.5 km/h 61.4% 0 mm 0 W/m2
00:59 18.4 °C 10.8 °C 1016.1 hPa South 9.3 km/h 14.8 km/h 61.2% 0 mm 0 W/m2
01:04 18.4 °C 10.8 °C 1016.1 hPa South 7.6 km/h 14.8 km/h 61% 0 mm 0 W/m2
01:09 18.3 °C 10.7 °C 1016.1 hPa South 8 km/h 18.5 km/h 61.2% 0 mm 0 W/m2
01:14 18.2 °C 10.8 °C 1016.1 hPa South 8 km/h 18.5 km/h 61.7% 0 mm 0 W/m2
01:19 18.2 °C 10.7 °C 1016.1 hPa South 7.9 km/h 16.6 km/h 61.3% 0 mm 0 W/m2
01:24 18.3 °C 10.7 °C 1015.8 hPa SSW 10.1 km/h 16.6 km/h 61% 0 mm 0 W/m2
01:29 18.2 °C 10.6 °C 1015.8 hPa South 8 km/h 16.6 km/h 61.2% 0 mm 0 W/m2
01:34 18.2 °C 10.6 °C 1015.8 hPa South 8.4 km/h 18.5 km/h 61.1% 0 mm 0 W/m2
01:39 18.1 °C 10.6 °C 1015.8 hPa South 9 km/h 18.5 km/h 61.7% 0 mm 0 W/m2
01:44 18.1 °C 10.6 °C 1015.8 hPa South 9 km/h 18.5 km/h 61.5% 0 mm 0 W/m2
01:49 18.1 °C 10.6 °C 1015.8 hPa South 6.9 km/h 18.5 km/h 61.3% 0 mm 0 W/m2
01:54 18.1 °C 10.6 °C 1015.8 hPa South 8.4 km/h 14.8 km/h 61.6% 0 mm 0 W/m2
01:59 18 °C 10.5 °C 1015.8 hPa South 6.1 km/h 14.8 km/h 61.5% 0 mm 0 W/m2
02:04 17.9 °C 10.6 °C 1015.8 hPa South 7.9 km/h 16.6 km/h 62.5% 0 mm 0 W/m2
02:09 17.8 °C 10.5 °C 1015.5 hPa South 7.6 km/h 16.6 km/h 62.4% 0 mm 0 W/m2
02:14 17.7 °C 10.6 °C 1015.5 hPa South 7.7 km/h 14.8 km/h 63% 0 mm 0 W/m2
02:19 17.7 °C 10.6 °C 1015.5 hPa South 6.9 km/h 13 km/h 63% 0 mm 0 W/m2
02:24 17.7 °C 10.6 °C 1015.5 hPa South 6.6 km/h 13 km/h 63% 0 mm 0 W/m2
02:29 17.6 °C 10.6 °C 1015.5 hPa South 5.6 km/h 13 km/h 63.5% 0 mm 0 W/m2
02:34 17.5 °C 10.4 °C 1015.5 hPa South 6.4 km/h 13 km/h 63.3% 0 mm 0 W/m2
02:39 17.5 °C 10.6 °C 1015.5 hPa South 8.2 km/h 14.8 km/h 64% 0 mm 0 W/m2
02:44 17.4 °C 10.6 °C 1015.5 hPa South 6.6 km/h 14.8 km/h 64% 0 mm 0 W/m2
02:49 17.4 °C 10.6 °C 1015.5 hPa South 7.7 km/h 13 km/h 64.4% 0 mm 0 W/m2
02:54 17.4 °C 10.6 °C 1015.5 hPa South 7.6 km/h 13 km/h 64.4% 0 mm 0 W/m2
02:59 17.4 °C 10.6 °C 1015.5 hPa South 9 km/h 13 km/h 64.5% 0 mm 0 W/m2
03:04 17.3 °C 10.7 °C 1015.1 hPa South 7.1 km/h 14.8 km/h 65% 0 mm 0 W/m2
03:09 17.3 °C 10.7 °C 1015.1 hPa South 7.1 km/h 14.8 km/h 65% 0 mm 0 W/m2
03:14 17.3 °C 10.7 °C 1015.1 hPa SSW 8.7 km/h 13 km/h 65% 0 mm 0 W/m2
03:19 17.3 °C 10.7 °C 1015.1 hPa SSW 9.5 km/h 13 km/h 65% 0 mm 0 W/m2
03:24 17.3 °C 10.8 °C 1015.1 hPa SSW 8.7 km/h 16.6 km/h 65.5% 0 mm 0 W/m2
03:29 17.2 °C 10.8 °C 1015.1 hPa SSW 10 km/h 16.6 km/h 66% 0 mm 0 W/m2
03:34 17.2 °C 10.8 °C 1015.1 hPa SSW 10.3 km/h 16.6 km/h 66.3% 0 mm 0 W/m2
03:39 17.2 °C 11 °C 1014.8 hPa SSW 10.9 km/h 14.8 km/h 67% 0 mm 0 W/m2
03:44 17.1 °C 11.1 °C 1014.8 hPa SSW 9.7 km/h 16.6 km/h 67.5% 0 mm 0 W/m2
03:49 17.1 °C 11.2 °C 1014.8 hPa SSW 10.5 km/h 16.6 km/h 68% 0 mm 0 W/m2
03:54 17.2 °C 11.2 °C 1014.8 hPa SSW 11.7 km/h 18.5 km/h 68% 0 mm 0 W/m2
03:59 17.2 °C 11.2 °C 1014.8 hPa SSW 10.8 km/h 18.5 km/h 68.1% 0 mm 0 W/m2
04:04 17.1 °C 11.4 °C 1014.8 hPa SSW 11.9 km/h 20.3 km/h 68.8% 0 mm 0 W/m2
04:09 17.2 °C 11.4 °C 1014.8 hPa SSW 12.7 km/h 20.3 km/h 68.8% 0 mm 0 W/m2
04:14 17.2 °C 11.5 °C 1014.8 hPa SSW 10.5 km/h 20.3 km/h 68.9% 0 mm 0 W/m2
04:19 17.3 °C 11.6 °C 1014.4 hPa SSW 11.6 km/h 18.5 km/h 69% 0 mm 0 W/m2
04:24 17.3 °C 11.6 °C 1014.4 hPa SSW 12.6 km/h 20.3 km/h 69% 0 mm 0 W/m2
04:29 17.3 °C 11.8 °C 1014.4 hPa SSW 13 km/h 20.3 km/h 69.9% 0 mm 0 W/m2
04:34 17.3 °C 11.8 °C 1014.4 hPa SSW 14.8 km/h 22.2 km/h 70% 0 mm 0 W/m2
04:39 17.3 °C 11.9 °C 1014.4 hPa SSW 13.5 km/h 22.2 km/h 70.7% 0 mm 0 W/m2
04:44 17.3 °C 12 °C 1014.4 hPa SSW 13.5 km/h 22.2 km/h 71% 0 mm 0 W/m2
04:49 17.3 °C 12.1 °C 1014.4 hPa SSW 13.8 km/h 22.2 km/h 71% 0 mm 0 W/m2
04:54 17.4 °C 12.1 °C 1014.4 hPa SSW 12.2 km/h 20.3 km/h 71% 0 mm 0 W/m2
04:59 17.3 °C 12.2 °C 1014.4 hPa SSW 11.1 km/h 18.5 km/h 71.9% 0 mm 0 W/m2
05:04 17.2 °C 12.3 °C 1014.4 hPa SSW 11.7 km/h 18.5 km/h 72.7% 0 mm 0 W/m2
05:09 17.2 °C 12.3 °C 1014.4 hPa SSW 10.9 km/h 18.5 km/h 73% 0 mm 0 W/m2
05:14 17.2 °C 12.5 °C 1014.4 hPa SSW 9.8 km/h 16.6 km/h 73.8% 0 mm 0 W/m2
05:19 17.2 °C 12.6 °C 1014.4 hPa SSW 9.8 km/h 18.5 km/h 74% 0 mm 0 W/m2
05:24 17.2 °C 12.6 °C 1014.4 hPa SSW 10 km/h 18.5 km/h 74.3% 0 mm 0 W/m2
05:29 17.2 °C 12.7 °C 1014.4 hPa SSW 10.5 km/h 18.5 km/h 75% 0 mm 5 W/m2
05:34 17.2 °C 12.8 °C 1014.1 hPa SSW 11.3 km/h 18.5 km/h 75% 0 mm 9 W/m2
05:39 17.3 °C 12.8 °C 1014.4 hPa SSW 11.1 km/h 16.6 km/h 75% 0 mm 11 W/m2
05:44 17.3 °C 13.1 °C 1014.4 hPa SSW 11.4 km/h 16.6 km/h 76% 0 mm 12 W/m2
05:49 17.3 °C 13.1 °C 1014.4 hPa SSW 10.9 km/h 18.5 km/h 76% 0 mm 14 W/m2
05:54 17.4 °C 13.2 °C 1014.4 hPa SSW 11.9 km/h 18.5 km/h 76% 0 mm 16 W/m2
05:59 17.4 °C 13.2 °C 1014.4 hPa SSW 13.5 km/h 20.3 km/h 76.1% 0 mm 18 W/m2
06:04 17.5 °C 13.4 °C 1014.4 hPa SSW 12.4 km/h 20.3 km/h 77% 0 mm 21 W/m2
06:09 17.6 °C 13.5 °C 1014.4 hPa SSW 13.7 km/h 18.5 km/h 77% 0 mm 25 W/m2
06:14 17.7 °C 13.7 °C 1014.4 hPa SSW 16.6 km/h 22.2 km/h 77% 0 mm 32 W/m2
06:19 17.9 °C 13.8 °C 1014.4 hPa SSW 16.9 km/h 25.9 km/h 77% 0 mm 47 W/m2
06:24 18.1 °C 14 °C 1014.4 hPa SSW 15.4 km/h 25.9 km/h 77% 0 mm 54 W/m2
06:29 18.2 °C 14 °C 1014.4 hPa SSW 16.4 km/h 27.7 km/h 76.3% 0 mm 84 W/m2
06:34 18.3 °C 14.1 °C 1014.4 hPa SSW 17.9 km/h 27.7 km/h 76.3% 0 mm 86 W/m2
06:39 18.5 °C 14.3 °C 1014.4 hPa SSW 17.4 km/h 25.9 km/h 76.6% 0 mm 142 W/m2
06:44 18.7 °C 14.4 °C 1014.4 hPa SSW 16.6 km/h 25.9 km/h 76.2% 0 mm 153 W/m2
06:49 18.8 °C 14.6 °C 1014.4 hPa SSW 18.3 km/h 27.7 km/h 76.2% 0 mm 178 W/m2
06:54 19.1 °C 14.7 °C 1014.4 hPa SSW 16.1 km/h 27.7 km/h 76% 0 mm 195 W/m2
06:59 19.3 °C 14.9 °C 1014.4 hPa SSW 17.2 km/h 25.9 km/h 76% 0 mm 209 W/m2
07:04 19.5 °C 15 °C 1014.4 hPa SSW 16.7 km/h 25.9 km/h 75.4% 0 mm 227 W/m2
07:09 19.8 °C 15.2 °C 1014.4 hPa SSW 17.9 km/h 27.7 km/h 75% 0 mm 243 W/m2
07:14 19.9 °C 15.3 °C 1014.4 hPa SW 18.5 km/h 31.4 km/h 74.9% 0 mm 258 W/m2
07:19 20.2 °C 15.4 °C 1014.4 hPa SW 20 km/h 31.4 km/h 74% 0 mm 272 W/m2
07:24 20.3 °C 15.6 °C 1014.4 hPa SSW 20.8 km/h 33.3 km/h 74% 0 mm 288 W/m2
07:29 20.4 °C 15.6 °C 1014.1 hPa SSW 22 km/h 33.3 km/h 73.7% 0 mm 304 W/m2
07:34 20.7 °C 15.7 °C 1014.1 hPa SW 21.1 km/h 33.3 km/h 73.2% 0 mm 320 W/m2
07:39 20.8 °C 15.8 °C 1014.1 hPa SW 20.9 km/h 31.4 km/h 73% 0 mm 338 W/m2
07:44 20.9 °C 15.9 °C 1014.1 hPa SW 20.1 km/h 33.3 km/h 73% 0 mm 353 W/m2
07:49 21.2 °C 15.9 °C 1014.1 hPa SW 17.7 km/h 33.3 km/h 72.2% 0 mm 369 W/m2
07:54 21.4 °C 16.2 °C 1014.1 hPa SW 20 km/h 33.3 km/h 72% 0 mm 381 W/m2
07:59 21.6 °C 16.3 °C 1014.1 hPa SW 22 km/h 44.4 km/h 71.8% 0 mm 399 W/m2
08:04 21.8 °C 16.4 °C 1014.1 hPa SW 22.4 km/h 44.4 km/h 71.5% 0 mm 415 W/m2
08:09 21.9 °C 16.5 °C 1014.1 hPa SW 19.2 km/h 33.3 km/h 71.3% 0 mm 431 W/m2
08:14 22.1 °C 16.6 °C 1014.1 hPa SW 21.4 km/h 33.3 km/h 70.9% 0 mm 448 W/m2
08:19 22.3 °C 16.7 °C 1014.1 hPa SW 15.8 km/h 33.3 km/h 70.9% 0 mm 462 W/m2
08:24 22.6 °C 17 °C 1014.1 hPa SSW 21.2 km/h 33.3 km/h 70.8% 0 mm 475 W/m2
08:29 22.8 °C 17.1 °C 1014.1 hPa SW 21.4 km/h 33.3 km/h 70.2% 0 mm 492 W/m2
08:34 23 °C 17.1 °C 1014.1 hPa SW 21.9 km/h 37 km/h 69.1% 0 mm 508 W/m2
08:39 23.1 °C 17.1 °C 1013.8 hPa SW 20.9 km/h 40.7 km/h 68.8% 0 mm 522 W/m2
08:44 23.3 °C 17.1 °C 1014.1 hPa SW 21.4 km/h 40.7 km/h 68.3% 0 mm 540 W/m2
08:49 23.4 °C 17.3 °C 1014.1 hPa SSW 20 km/h 38.8 km/h 68.2% 0 mm 554 W/m2
08:54 23.8 °C 17.6 °C 1013.8 hPa SW 21.1 km/h 33.3 km/h 67.9% 0 mm 566 W/m2
08:59 24.1 °C 17.5 °C 1013.8 hPa SW 19.5 km/h 35.2 km/h 66.8% 0 mm 584 W/m2
09:04 24.1 °C 17.6 °C 1013.8 hPa SW 21.9 km/h 35.2 km/h 66.6% 0 mm 596 W/m2
09:09 24.3 °C 17.6 °C 1013.8 hPa SW 18.8 km/h 33.3 km/h 66.3% 0 mm 608 W/m2
09:14 24.5 °C 17.7 °C 1013.8 hPa SW 21.1 km/h 37 km/h 65.8% 0 mm 622 W/m2
09:19 24.8 °C 17.8 °C 1013.8 hPa SW 20.4 km/h 37 km/h 65.2% 0 mm 635 W/m2
09:24 25 °C 17.8 °C 1013.8 hPa SW 24.6 km/h 38.8 km/h 64.5% 0 mm 650 W/m2
09:29 25.3 °C 17.9 °C 1013.8 hPa SW 18.3 km/h 38.8 km/h 63.8% 0 mm 663 W/m2
09:34 25.4 °C 17.9 °C 1013.4 hPa SW 21.7 km/h 33.3 km/h 63.2% 0 mm 673 W/m2
09:39 25.7 °C 18.1 °C 1013.4 hPa SW 22.7 km/h 37 km/h 63.2% 0 mm 686 W/m2
09:44 26 °C 18.4 °C 1013.4 hPa SW 18.2 km/h 37 km/h 63% 0 mm 698 W/m2
09:49 26.1 °C 18.2 °C 1013.4 hPa SW 24.8 km/h 38.8 km/h 61.7% 0 mm 712 W/m2
09:54 26.2 °C 18.4 °C 1013.4 hPa SW 24.5 km/h 38.8 km/h 62.4% 0 mm 721 W/m2
09:59 26.2 °C 18.1 °C 1013.4 hPa SW 24.9 km/h 42.5 km/h 61% 0 mm 735 W/m2
10:04 26.3 °C 18.3 °C 1013.4 hPa SW 21.9 km/h 42.5 km/h 61.4% 0 mm 747 W/m2
10:09 26.7 °C 18.5 °C 1013.4 hPa SW 24 km/h 37 km/h 60.7% 0 mm 758 W/m2
10:14 26.8 °C 18.3 °C 1013.1 hPa SW 19.5 km/h 37 km/h 59.7% 0 mm 768 W/m2
10:19 26.8 °C 18.4 °C 1013.1 hPa SW 24.6 km/h 35.2 km/h 59.8% 0 mm 779 W/m2
10:24 27 °C 18.6 °C 1013.1 hPa SW 18.2 km/h 35.2 km/h 60.2% 0 mm 789 W/m2
10:29 27.3 °C 18.7 °C 1013.1 hPa SW 19.6 km/h 27.7 km/h 59.2% 0 mm 802 W/m2
10:34 27.5 °C 18.5 °C 1013.1 hPa SW 22.9 km/h 35.2 km/h 58% 0 mm 812 W/m2
10:39 27.6 °C 18.7 °C 1013.1 hPa SSW 22.7 km/h 37 km/h 58.5% 0 mm 817 W/m2
10:44 27.9 °C 18.9 °C 1013.1 hPa SW 19 km/h 37 km/h 57.9% 0 mm 828 W/m2
10:49 28.2 °C 18.7 °C 1013.1 hPa SW 23.5 km/h 35.2 km/h 56.3% 0 mm 837 W/m2
10:54 28.1 °C 18.6 °C 1013.1 hPa WSW 21.1 km/h 35.2 km/h 56.4% 0 mm 847 W/m2
10:59 28.3 °C 18.9 °C 1012.8 hPa SW 20 km/h 33.3 km/h 56.7% 0 mm 856 W/m2
11:04 28.5 °C 18.9 °C 1012.8 hPa SW 20.6 km/h 35.2 km/h 56.2% 0 mm 863 W/m2
11:09 28.6 °C 18.7 °C 1012.8 hPa SW 22 km/h 35.2 km/h 55.1% 0 mm 868 W/m2
11:14 28.6 °C 18.8 °C 1012.8 hPa SW 15.8 km/h 33.3 km/h 55.5% 0 mm 877 W/m2
11:19 28.9 °C 19.2 °C 1012.8 hPa SW 17.7 km/h 33.3 km/h 55.9% 0 mm 881 W/m2
11:24 29.2 °C 19.2 °C 1012.8 hPa SW 18.2 km/h 27.7 km/h 55.2% 0 mm 891 W/m2
11:29 29.1 °C 18.9 °C 1012.8 hPa SW 23.5 km/h 31.4 km/h 54.3% 0 mm 898 W/m2
11:34 29.1 °C 19.1 °C 1012.8 hPa SW 19.8 km/h 31.4 km/h 54.7% 0 mm 907 W/m2
11:39 29.3 °C 19.2 °C 1012.8 hPa SW 20 km/h 31.4 km/h 54.2% 0 mm 909 W/m2
11:44 29.3 °C 18.9 °C 1012.4 hPa WSW 21.9 km/h 31.4 km/h 53.7% 0 mm 916 W/m2
11:49 29.3 °C 19 °C 1012.4 hPa SW 20.1 km/h 31.4 km/h 53.9% 0 mm 919 W/m2
11:54 29.6 °C 19.1 °C 1012.4 hPa SW 19.6 km/h 31.4 km/h 53.2% 0 mm 926 W/m2
11:59 29.7 °C 19 °C 1012.4 hPa WSW 23.2 km/h 33.3 km/h 52.9% 0 mm 928 W/m2
12:04 29.6 °C 19.1 °C 1012.4 hPa SW 15.4 km/h 33.3 km/h 53.2% 0 mm 935 W/m2
12:09 29.9 °C 19.5 °C 1012.4 hPa SW 18.7 km/h 40.7 km/h 53.5% 0 mm 937 W/m2
12:14 30.1 °C 19.3 °C 1012.4 hPa SSW 23.3 km/h 40.7 km/h 52.5% 0 mm 942 W/m2
12:19 30.3 °C 19.4 °C 1012.1 hPa SW 18.8 km/h 40.7 km/h 52.5% 0 mm 944 W/m2
12:24 30.5 °C 19.5 °C 1012.1 hPa SW 18.7 km/h 31.4 km/h 51.9% 0 mm 944 W/m2
12:29 30.6 °C 19.4 °C 1012.1 hPa SW 21.7 km/h 40.7 km/h 51.3% 0 mm 949 W/m2
12:34 30.5 °C 19.1 °C 1012.1 hPa SW 21.4 km/h 40.7 km/h 50.5% 0 mm 949 W/m2
12:39 30.3 °C 19.1 °C 1012.1 hPa SW 20 km/h 37 km/h 51.2% 0 mm 953 W/m2
12:44 30.6 °C 19.4 °C 1011.7 hPa SW 19.6 km/h 33.3 km/h 51.4% 0 mm 954 W/m2
12:49 31.1 °C 19.5 °C 1011.7 hPa SW 19 km/h 33.3 km/h 50.4% 0 mm 956 W/m2
12:54 31.2 °C 19.7 °C 1011.7 hPa WSW 21.7 km/h 33.3 km/h 50.5% 0 mm 956 W/m2
12:59 31.3 °C 19.7 °C 1011.7 hPa SW 19.6 km/h 33.3 km/h 50.1% 0 mm 958 W/m2
13:04 31.6 °C 19.7 °C 1011.7 hPa SW 19.3 km/h 33.3 km/h 49.5% 0 mm 956 W/m2
13:09 31.7 °C 19.6 °C 1011.7 hPa SW 20 km/h 31.4 km/h 48.8% 0 mm 956 W/m2
13:14 31.7 °C 19.5 °C 1011.7 hPa SW 20 km/h 29.6 km/h 48.4% 0 mm 956 W/m2
13:19 31.7 °C 19.3 °C 1011.4 hPa SW 26.4 km/h 40.7 km/h 47.8% 0 mm 954 W/m2
13:24 31.8 °C 19.3 °C 1011.4 hPa SW 19.5 km/h 40.7 km/h 47.7% 0 mm 954 W/m2
13:29 32.1 °C 19.7 °C 1011.4 hPa SW 20.8 km/h 31.4 km/h 47.9% 0 mm 951 W/m2
13:34 32.4 °C 19.9 °C 1011.4 hPa SW 19 km/h 31.4 km/h 47.5% 0 mm 946 W/m2
13:39 32.6 °C 19.7 °C 1011.1 hPa SW 18.8 km/h 31.4 km/h 46.6% 0 mm 944 W/m2
13:44 32.6 °C 19.8 °C 1011.4 hPa SW 23 km/h 35.2 km/h 47.1% 0 mm 930 W/m2
13:49 32.4 °C 19.6 °C 1011.1 hPa SW 18.2 km/h 35.2 km/h 46.7% 0 mm 939 W/m2
13:54 32.8 °C 20 °C 1011.1 hPa SW 17.2 km/h 33.3 km/h 47% 0 mm 926 W/m2
13:59 32.9 °C 19.6 °C 1011.1 hPa SW 17.7 km/h 31.4 km/h 45.4% 0 mm 926 W/m2
14:04 32.9 °C 19.3 °C 1011.1 hPa SW 18.7 km/h 40.7 km/h 44.9% 0 mm 919 W/m2
14:09 32.8 °C 19.2 °C 1011.1 hPa SW 24 km/h 40.7 km/h 44.5% 0 mm 895 W/m2
14:14 32.9 °C 19.3 °C 1010.7 hPa SW 18.7 km/h 35.2 km/h 44.4% 0 mm 907 W/m2
14:19 32.9 °C 19.2 °C 1010.7 hPa SW 21.4 km/h 35.2 km/h 44.3% 0 mm 898 W/m2
14:24 32.8 °C 19.3 °C 1010.7 hPa SW 20.8 km/h 35.2 km/h 45% 0 mm 896 W/m2
14:29 32.9 °C 19.2 °C 1010.7 hPa SW 23.3 km/h 37 km/h 44.4% 0 mm 891 W/m2
14:34 32.9 °C 19.4 °C 1010.7 hPa SW 19.5 km/h 37 km/h 44.8% 0 mm 888 W/m2
14:39 33.2 °C 19.3 °C 1010.7 hPa SW 23 km/h 35.2 km/h 44.1% 0 mm 888 W/m2
14:44 33.5 °C 19.6 °C 1010.7 hPa SSW 27 km/h 37 km/h 43.9% 0 mm 872 W/m2
14:49 33.6 °C 19.2 °C 1010.7 hPa SW 20.6 km/h 37 km/h 43% 0 mm 863 W/m2
14:54 33.4 °C 19.1 °C 1010.7 hPa SW 23 km/h 33.3 km/h 43% 0 mm 858 W/m2
14:59 33.4 °C 18.9 °C 1010.7 hPa SW 22.7 km/h 33.3 km/h 42.6% 0 mm 842 W/m2
15:04 33.6 °C 19.1 °C 1010.4 hPa SW 21.2 km/h 33.3 km/h 42.5% 0 mm 837 W/m2
15:09 33.6 °C 19 °C 1010.4 hPa SW 25.6 km/h 49.9 km/h 42.2% 0 mm 833 W/m2
15:14 33.4 °C 18.5 °C 1010.4 hPa SW 26.7 km/h 49.9 km/h 41.3% 0 mm 826 W/m2
15:19 33.2 °C 18.3 °C 1010.4 hPa SW 27.2 km/h 40.7 km/h 41.3% 0 mm 814 W/m2
15:24 33.2 °C 18.8 °C 1010.4 hPa SW 23.3 km/h 40.7 km/h 42.6% 0 mm 802 W/m2
15:29 33.4 °C 18.4 °C 1010.4 hPa SW 24 km/h 38.8 km/h 41.1% 0 mm 793 W/m2
15:34 33.6 °C 18.5 °C 1010.4 hPa SW 22.4 km/h 38.8 km/h 41% 0 mm 786 W/m2
15:39 33.5 °C 18.8 °C 1010.4 hPa SW 20.4 km/h 38.8 km/h 42% 0 mm 779 W/m2
15:44 33.7 °C 18.4 °C 1010.4 hPa SW 22.4 km/h 35.2 km/h 40.5% 0 mm 765 W/m2
15:49 33.8 °C 18.5 °C 1010.4 hPa SW 20.9 km/h 35.2 km/h 40.5% 0 mm 740 W/m2
15:54 33.8 °C 18.5 °C 1010.4 hPa SW 25.4 km/h 42.5 km/h 40.5% 0 mm 728 W/m2
15:59 33.9 °C 18.6 °C 1010 hPa SSW 24.5 km/h 42.5 km/h 40.5% 0 mm 719 W/m2
16:04 33.9 °C 18.3 °C 1010 hPa SW 22.9 km/h 35.2 km/h 39.6% 0 mm 710 W/m2
16:09 34 °C 18.3 °C 1010 hPa SW 23.2 km/h 37 km/h 39.5% 0 mm 700 W/m2
16:14 33.9 °C 18.1 °C 1010 hPa SW 23.5 km/h 37 km/h 39.3% 0 mm 687 W/m2
16:19 33.8 °C 18 °C 1010 hPa SW 23.2 km/h 38.8 km/h 39.1% 0 mm 675 W/m2
16:24 33.8 °C 17.2 °C 1010 hPa SW 24.9 km/h 38.8 km/h 37.1% 0 mm 663 W/m2
16:29 33.9 °C 17.4 °C 1010 hPa SW 27.2 km/h 38.8 km/h 37.6% 0 mm 645 W/m2
16:34 33.9 °C 17.2 °C 1010 hPa SW 25.9 km/h 44.4 km/h 37.2% 0 mm 631 W/m2
16:39 33.9 °C 17.6 °C 1010 hPa SW 23.3 km/h 44.4 km/h 38.2% 0 mm 622 W/m2
16:44 33.8 °C 17.9 °C 1010 hPa SW 23.3 km/h 38.8 km/h 39% 0 mm 605 W/m2
16:49 33.9 °C 17.6 °C 1010 hPa SW 24.6 km/h 31.4 km/h 37.9% 0 mm 592 W/m2
16:54 33.8 °C 17.3 °C 1010 hPa SW 24 km/h 37 km/h 37.5% 0 mm 582 W/m2
16:59 33.7 °C 17.3 °C 1010 hPa SW 21.7 km/h 37 km/h 37.8% 0 mm 563 W/m2
17:04 33.7 °C 17.7 °C 1010 hPa SW 22.7 km/h 37 km/h 38.8% 0 mm 548 W/m2
17:09 33.7 °C 18 °C 1009.7 hPa SW 21.9 km/h 38.8 km/h 39.5% 0 mm 534 W/m2
17:14 33.8 °C 18.4 °C 1009.7 hPa SW 23.2 km/h 38.8 km/h 40.2% 0 mm 517 W/m2
17:19 33.8 °C 18.1 °C 1009.7 hPa SW 22.5 km/h 35.2 km/h 39.6% 0 mm 496 W/m2
17:24 33.6 °C 18 °C 1009.7 hPa SSW 21.6 km/h 35.2 km/h 39.6% 0 mm 494 W/m2
17:29 33.6 °C 18.1 °C 1009.7 hPa SW 19.8 km/h 35.2 km/h 39.8% 0 mm 476 W/m2
17:34 33.5 °C 18.1 °C 1009.7 hPa SW 25.6 km/h 44.4 km/h 40% 0 mm 459 W/m2
17:39 33.4 °C 18 °C 1009.7 hPa SW 25.1 km/h 44.4 km/h 40% 0 mm 441 W/m2
17:44 33.5 °C 17.9 °C 1009.7 hPa SW 24.8 km/h 40.7 km/h 39.7% 0 mm 429 W/m2
17:49 33.4 °C 17.9 °C 1009.4 hPa SW 25.7 km/h 40.7 km/h 40% 0 mm 413 W/m2
17:54 33.2 °C 17.8 °C 1009.4 hPa SW 21.6 km/h 40.7 km/h 40.1% 0 mm 388 W/m2
17:59 33.2 °C 17.7 °C 1009.7 hPa SW 19.6 km/h 35.2 km/h 39.9% 0 mm 376 W/m2
18:04 33.1 °C 17.7 °C 1009.7 hPa SW 20.3 km/h 35.2 km/h 40.1% 0 mm 355 W/m2
18:09 33.1 °C 17.7 °C 1009.4 hPa SW 21.2 km/h 37 km/h 40.1% 0 mm 346 W/m2
18:14 33.1 °C 17.8 °C 1009.4 hPa SW 24.6 km/h 37 km/h 40.5% 0 mm 334 W/m2
18:19 32.8 °C 17.6 °C 1009.4 hPa SW 24.1 km/h 38.8 km/h 40.4% 0 mm 311 W/m2
18:24 32.7 °C 17.7 °C 1009.4 hPa SW 22.4 km/h 40.7 km/h 41% 0 mm 281 W/m2
18:29 32.6 °C 17.9 °C 1009.4 hPa SW 21.9 km/h 40.7 km/h 41.8% 0 mm 281 W/m2
18:34 32.4 °C 17.9 °C 1009.4 hPa SW 21.1 km/h 35.2 km/h 42.1% 0 mm 265 W/m2
18:39 32.2 °C 17.8 °C 1009.4 hPa SW 21.6 km/h 40.7 km/h 42.3% 0 mm 229 W/m2
18:44 32.1 °C 18.1 °C 1009.4 hPa SSW 21.1 km/h 40.7 km/h 43.4% 0 mm 91 W/m2
18:49 31.9 °C 17.8 °C 1009.4 hPa SW 19.2 km/h 35.2 km/h 43% 0 mm 60 W/m2
18:54 31.8 °C 18 °C 1009.4 hPa SW 20.4 km/h 33.3 km/h 43.8% 0 mm 53 W/m2
18:59 31.7 °C 18 °C 1009.4 hPa SW 22.2 km/h 33.3 km/h 44.1% 0 mm 42 W/m2
19:04 31.6 °C 18.2 °C 1009.4 hPa SW 16.6 km/h 31.4 km/h 45% 0 mm 40 W/m2
19:09 31.4 °C 18.3 °C 1009.4 hPa SW 17.4 km/h 27.7 km/h 45.6% 0 mm 37 W/m2
19:14 31.3 °C 18.5 °C 1009.4 hPa SW 15.8 km/h 27.7 km/h 46.4% 0 mm 35 W/m2
19:19 31.2 °C 18.9 °C 1009.4 hPa SW 19.2 km/h 27.7 km/h 47.9% 0 mm 33 W/m2
19:24 31.1 °C 18.6 °C 1009 hPa SW 17.7 km/h 27.7 km/h 47.5% 0 mm 32 W/m2
19:29 30.9 °C 18.4 °C 1009.4 hPa SW 17.5 km/h 31.4 km/h 47.3% 0 mm 30 W/m2
19:34 30.8 °C 18.4 °C 1009 hPa SW 19.6 km/h 31.4 km/h 47.5% 0 mm 26 W/m2
19:39 30.7 °C 18.5 °C 1009 hPa SW 17.5 km/h 27.7 km/h 48.2% 0 mm 26 W/m2
19:44 30.5 °C 18.6 °C 1009 hPa SW 15 km/h 24 km/h 48.9% 0 mm 23 W/m2
19:49 30.4 °C 18.4 °C 1009 hPa SW 16.1 km/h 25.9 km/h 49% 0 mm 19 W/m2
19:54 30.2 °C 18.3 °C 1008.7 hPa SW 15.8 km/h 29.6 km/h 49% 0 mm 18 W/m2
19:59 30.1 °C 18.2 °C 1008.7 hPa SW 14.3 km/h 29.6 km/h 49% 0 mm 14 W/m2
20:04 29.9 °C 18.1 °C 1009 hPa SW 15.8 km/h 31.4 km/h 49.4% 0 mm 12 W/m2
20:09 29.8 °C 18.2 °C 1009 hPa SW 14.8 km/h 31.4 km/h 49.8% 0 mm 7 W/m2
20:14 29.6 °C 18.1 °C 1008.7 hPa SW 15.9 km/h 27.7 km/h 50.1% 0 mm 0 W/m2
20:19 29.4 °C 18.2 °C 1008.7 hPa SW 17.5 km/h 27.7 km/h 51% 0 mm 0 W/m2
20:24 29.3 °C 18.2 °C 1008.7 hPa SW 15.4 km/h 27.7 km/h 51.4% 0 mm 0 W/m2
20:29 29.2 °C 18.3 °C 1008.7 hPa SW 16.4 km/h 25.9 km/h 52% 0 mm 0 W/m2
20:34 29 °C 18.4 °C 1008.7 hPa SW 17.4 km/h 25.9 km/h 52.8% 0 mm 0 W/m2
20:39 28.8 °C 18.5 °C 1009 hPa SW 14.2 km/h 25.9 km/h 53.7% 0 mm 0 W/m2
20:44 28.7 °C 18.6 °C 1009 hPa SW 14 km/h 24 km/h 54.3% 0 mm 0 W/m2
20:49 28.4 °C 18.6 °C 1009.4 hPa SSW 14 km/h 20.3 km/h 55.3% 0 mm 0 W/m2
20:54 28.3 °C 18.7 °C 1009.4 hPa SW 13.7 km/h 20.3 km/h 56% 0 mm 0 W/m2
20:59 28.1 °C 18.7 °C 1009.7 hPa SW 12.1 km/h 20.3 km/h 56.4% 0 mm 0 W/m2
21:04 28.1 °C 18.7 °C 1009.7 hPa SW 13.8 km/h 24 km/h 57% 0 mm 0 W/m2
21:09 27.9 °C 18.7 °C 1010 hPa SW 12.7 km/h 24 km/h 57% 0 mm 0 W/m2
21:14 27.8 °C 18.7 °C 1010 hPa SW 10.9 km/h 20.3 km/h 57.5% 0 mm 0 W/m2
21:19 27.7 °C 18.7 °C 1010.4 hPa SW 10.1 km/h 16.6 km/h 58% 0 mm 0 W/m2
21:24 27.7 °C 18.7 °C 1010.4 hPa SW 12.1 km/h 18.5 km/h 58% 0 mm 0 W/m2
21:29 27.6 °C 18.7 °C 1010 hPa SW 13 km/h 22.2 km/h 58.4% 0 mm 0 W/m2
21:34 27.6 °C 18.8 °C 1010.4 hPa SW 13.4 km/h 22.2 km/h 59% 0 mm 0 W/m2
21:39 27.5 °C 18.8 °C 1010.4 hPa SW 12.4 km/h 22.2 km/h 59% 0 mm 0 W/m2
21:44 27.4 °C 18.8 °C 1010.4 hPa SW 17.4 km/h 24 km/h 59.2% 0 mm 0 W/m2
21:49 27.4 °C 18.9 °C 1010.7 hPa SW 16.3 km/h 24 km/h 59.7% 0 mm 0 W/m2
21:54 27.4 °C 18.9 °C 1010.7 hPa SW 16.3 km/h 25.9 km/h 60% 0 mm 0 W/m2
21:59 27.3 °C 18.9 °C 1010.4 hPa SW 15.8 km/h 25.9 km/h 60% 0 mm 0 W/m2
22:04 27.2 °C 18.8 °C 1010.4 hPa SW 13.5 km/h 22.2 km/h 60.2% 0 mm 0 W/m2
22:09 27.1 °C 18.9 °C 1010.4 hPa SW 13.8 km/h 22.2 km/h 61% 0 mm 0 W/m2
22:14 26.9 °C 19 °C 1010.4 hPa SW 14.3 km/h 24 km/h 61.9% 0 mm 0 W/m2
22:19 26.8 °C 18.9 °C 1010.4 hPa SSW 14.6 km/h 24 km/h 62% 0 mm 0 W/m2
22:24 26.6 °C 19 °C 1010.4 hPa SW 13.7 km/h 22.2 km/h 63% 0 mm 0 W/m2
22:29 26.4 °C 18.8 °C 1010.4 hPa SW 14.6 km/h 22.2 km/h 63% 0 mm 0 W/m2
22:34 26.4 °C 18.8 °C 1010.4 hPa SW 14.6 km/h 25.9 km/h 63% 0 mm 0 W/m2
22:39 26.4 °C 18.8 °C 1010.4 hPa SW 15.3 km/h 29.6 km/h 63% 0 mm 0 W/m2
22:44 26.4 °C 18.8 °C 1010.7 hPa SW 16.4 km/h 29.6 km/h 63% 0 mm 0 W/m2
22:49 26.4 °C 18.8 °C 1010.7 hPa SW 15.4 km/h 25.9 km/h 63% 0 mm 0 W/m2
22:52 26.3 °C 18.7 °C 1010.7 hPa SW 16.9 km/h 24 km/h 63% 0 mm 0 W/m2
Peotne Weather
Compliments of Weather Underground - 4 mb